sensor_id;sensor_type;location;lat;lon;timestamp;P1;durP1;ratioP1;P2;durP2;ratioP2
71038;SDS011;58692;43.212;27.908;2022-07-06T00:01:48;10.17;;;4.60;;
71038;SDS011;58692;43.212;27.908;2022-07-06T00:04:15;12.50;;;5.15;;
71038;SDS011;58692;43.212;27.908;2022-07-06T00:06:41;14.10;;;5.33;;
71038;SDS011;58692;43.212;27.908;2022-07-06T00:09:07;10.00;;;4.75;;
71038;SDS011;58692;43.212;27.908;2022-07-06T00:11:32;12.13;;;4.63;;
71038;SDS011;58692;43.212;27.908;2022-07-06T00:13:58;10.37;;;4.60;;
71038;SDS011;58692;43.212;27.908;2022-07-06T00:16:23;10.95;;;4.50;;
71038;SDS011;58692;43.212;27.908;2022-07-06T00:18:49;12.18;;;4.90;;
71038;SDS011;58692;43.212;27.908;2022-07-06T00:21:16;10.70;;;4.20;;
71038;SDS011;58692;43.212;27.908;2022-07-06T00:23:42;13.43;;;4.90;;
71038;SDS011;58692;43.212;27.908;2022-07-06T00:26:08;10.98;;;4.70;;
71038;SDS011;58692;43.212;27.908;2022-07-06T00:28:34;12.57;;;5.00;;
71038;SDS011;58692;43.212;27.908;2022-07-06T00:30:59;14.73;;;5.10;;
71038;SDS011;58692;43.212;27.908;2022-07-06T00:33:25;11.77;;;4.80;;
71038;SDS011;58692;43.212;27.908;2022-07-06T00:35:51;15.13;;;5.30;;
71038;SDS011;58692;43.212;27.908;2022-07-06T00:38:16;14.65;;;5.40;;
71038;SDS011;58692;43.212;27.908;2022-07-06T00:40:42;17.60;;;6.17;;
71038;SDS011;58692;43.212;27.908;2022-07-06T00:43:07;19.07;;;6.13;;
71038;SDS011;58692;43.212;27.908;2022-07-06T00:45:33;14.43;;;6.13;;
71038;SDS011;58692;43.212;27.908;2022-07-06T00:47:58;19.13;;;6.53;;
71038;SDS011;58692;43.212;27.908;2022-07-06T00:50:24;16.70;;;6.20;;
71038;SDS011;58692;43.212;27.908;2022-07-06T00:55:18;12.25;;;5.30;;
71038;SDS011;58692;43.212;27.908;2022-07-06T00:57:46;12.75;;;5.18;;
71038;SDS011;58692;43.212;27.908;2022-07-06T01:00:13;10.60;;;4.80;;
71038;SDS011;58692;43.212;27.908;2022-07-06T01:02:41;13.37;;;5.13;;
71038;SDS011;58692;43.212;27.908;2022-07-06T01:05:08;15.05;;;5.75;;
71038;SDS011;58692;43.212;27.908;2022-07-06T01:07:35;13.63;;;4.93;;
71038;SDS011;58692;43.212;27.908;2022-07-06T01:10:02;12.02;;;5.10;;
71038;SDS011;58692;43.212;27.908;2022-07-06T01:12:29;13.70;;;6.07;;
71038;SDS011;58692;43.212;27.908;2022-07-06T01:14:55;17.70;;;7.50;;
71038;SDS011;58692;43.212;27.908;2022-07-06T01:17:21;16.05;;;7.20;;
71038;SDS011;58692;43.212;27.908;2022-07-06T01:19:47;18.30;;;8.40;;
71038;SDS011;58692;43.212;27.908;2022-07-06T01:22:13;19.83;;;9.57;;
71038;SDS011;58692;43.212;27.908;2022-07-06T01:24:38;19.20;;;9.95;;
71038;SDS011;58692;43.212;27.908;2022-07-06T01:27:05;18.47;;;10.60;;
71038;SDS011;58692;43.212;27.908;2022-07-06T01:29:31;22.27;;;12.15;;
71038;SDS011;58692;43.212;27.908;2022-07-06T01:31:57;19.60;;;10.93;;
71038;SDS011;58692;43.212;27.908;2022-07-06T01:34:23;23.70;;;11.40;;
71038;SDS011;58692;43.212;27.908;2022-07-06T01:36:49;22.90;;;11.23;;
71038;SDS011;58692;43.212;27.908;2022-07-06T01:39:14;25.47;;;12.60;;
71038;SDS011;58692;43.212;27.908;2022-07-06T01:41:40;27.27;;;14.32;;
71038;SDS011;58692;43.212;27.908;2022-07-06T01:44:06;22.90;;;13.27;;
71038;SDS011;58692;43.212;27.908;2022-07-06T01:46:31;20.80;;;11.95;;
71038;SDS011;58692;43.212;27.908;2022-07-06T01:48:57;23.07;;;10.57;;
71038;SDS011;58692;43.212;27.908;2022-07-06T01:51:23;24.35;;;10.27;;
71038;SDS011;58692;43.212;27.908;2022-07-06T01:53:49;22.15;;;9.95;;
71038;SDS011;58692;43.212;27.908;2022-07-06T01:56:16;26.80;;;10.77;;
71038;SDS011;58692;43.212;27.908;2022-07-06T01:58:44;18.27;;;10.37;;
71038;SDS011;58692;43.212;27.908;2022-07-06T02:01:10;21.92;;;10.77;;
71038;SDS011;58692;43.212;27.908;2022-07-06T02:03:39;21.17;;;10.05;;
71038;SDS011;58692;43.212;27.908;2022-07-06T02:06:05;19.48;;;10.35;;
71038;SDS011;58692;43.212;27.908;2022-07-06T02:08:32;18.10;;;9.88;;
71038;SDS011;58692;43.212;27.908;2022-07-06T02:10:59;24.13;;;10.40;;
71038;SDS011;58692;43.212;27.908;2022-07-06T02:13:24;18.83;;;9.90;;
71038;SDS011;58692;43.212;27.908;2022-07-06T02:15:50;17.88;;;10.55;;
71038;SDS011;58692;43.212;27.908;2022-07-06T02:18:16;23.40;;;11.23;;
71038;SDS011;58692;43.212;27.908;2022-07-06T02:20:42;21.58;;;10.90;;
71038;SDS011;58692;43.212;27.908;2022-07-06T02:23:08;23.63;;;11.55;;
71038;SDS011;58692;43.212;27.908;2022-07-06T02:25:33;23.73;;;11.13;;
71038;SDS011;58692;43.212;27.908;2022-07-06T02:27:59;20.08;;;10.80;;
71038;SDS011;58692;43.212;27.908;2022-07-06T02:30:25;23.93;;;12.03;;
71038;SDS011;58692;43.212;27.908;2022-07-06T02:32:50;22.83;;;12.57;;
71038;SDS011;58692;43.212;27.908;2022-07-06T02:35:16;21.13;;;12.60;;
71038;SDS011;58692;43.212;27.908;2022-07-06T02:37:42;23.08;;;13.40;;
71038;SDS011;58692;43.212;27.908;2022-07-06T02:40:08;24.97;;;14.17;;
71038;SDS011;58692;43.212;27.908;2022-07-06T02:42:34;19.95;;;12.70;;
71038;SDS011;58692;43.212;27.908;2022-07-06T02:44:59;23.13;;;13.07;;
71038;SDS011;58692;43.212;27.908;2022-07-06T02:47:25;29.10;;;14.23;;
71038;SDS011;58692;43.212;27.908;2022-07-06T02:49:51;26.42;;;13.57;;
71038;SDS011;58692;43.212;27.908;2022-07-06T02:52:17;23.27;;;14.00;;
71038;SDS011;58692;43.212;27.908;2022-07-06T02:54:43;25.37;;;13.30;;
71038;SDS011;58692;43.212;27.908;2022-07-06T02:57:09;28.48;;;13.25;;
71038;SDS011;58692;43.212;27.908;2022-07-06T02:59:35;25.35;;;13.07;;
71038;SDS011;58692;43.212;27.908;2022-07-06T03:02:02;26.37;;;10.50;;
71038;SDS011;58692;43.212;27.908;2022-07-06T03:04:29;20.20;;;9.88;;
71038;SDS011;58692;43.212;27.908;2022-07-06T03:06:55;19.92;;;9.77;;
71038;SDS011;58692;43.212;27.908;2022-07-06T03:09:20;19.40;;;10.10;;
71038;SDS011;58692;43.212;27.908;2022-07-06T03:11:46;18.93;;;10.47;;
71038;SDS011;58692;43.212;27.908;2022-07-06T03:14:11;19.67;;;9.80;;
71038;SDS011;58692;43.212;27.908;2022-07-06T03:16:37;16.87;;;9.20;;
71038;SDS011;58692;43.212;27.908;2022-07-06T03:19:03;17.52;;;9.75;;
71038;SDS011;58692;43.212;27.908;2022-07-06T03:21:28;17.93;;;9.27;;
71038;SDS011;58692;43.212;27.908;2022-07-06T03:23:54;20.08;;;9.15;;
71038;SDS011;58692;43.212;27.908;2022-07-06T03:26:19;20.23;;;9.13;;
71038;SDS011;58692;43.212;27.908;2022-07-06T03:28:45;21.67;;;9.50;;
71038;SDS011;58692;43.212;27.908;2022-07-06T03:31:10;20.10;;;9.33;;
71038;SDS011;58692;43.212;27.908;2022-07-06T03:33:36;21.60;;;9.37;;
71038;SDS011;58692;43.212;27.908;2022-07-06T03:36:01;18.02;;;8.98;;
71038;SDS011;58692;43.212;27.908;2022-07-06T03:38:28;19.00;;;10.57;;
71038;SDS011;58692;43.212;27.908;2022-07-06T03:40:53;23.95;;;11.27;;
71038;SDS011;58692;43.212;27.908;2022-07-06T03:43:19;22.77;;;10.40;;
71038;SDS011;58692;43.212;27.908;2022-07-06T03:45:44;25.13;;;10.43;;
71038;SDS011;58692;43.212;27.908;2022-07-06T03:48:09;21.08;;;10.07;;
71038;SDS011;58692;43.212;27.908;2022-07-06T03:50:35;20.13;;;10.40;;
71038;SDS011;58692;43.212;27.908;2022-07-06T03:53:01;23.48;;;10.68;;
71038;SDS011;58692;43.212;27.908;2022-07-06T03:55:26;22.50;;;11.50;;
71038;SDS011;58692;43.212;27.908;2022-07-06T03:57:52;26.77;;;11.97;;
71038;SDS011;58692;43.212;27.908;2022-07-06T04:00:18;22.38;;;12.52;;
71038;SDS011;58692;43.212;27.908;2022-07-06T04:02:43;21.83;;;12.00;;
71038;SDS011;58692;43.212;27.908;2022-07-06T04:05:09;22.77;;;11.67;;
71038;SDS011;58692;43.212;27.908;2022-07-06T04:07:34;19.57;;;11.90;;
71038;SDS011;58692;43.212;27.908;2022-07-06T04:10:00;19.60;;;11.37;;
71038;SDS011;58692;43.212;27.908;2022-07-06T04:12:26;20.02;;;11.82;;
71038;SDS011;58692;43.212;27.908;2022-07-06T04:14:51;20.90;;;11.67;;
71038;SDS011;58692;43.212;27.908;2022-07-06T04:17:17;21.15;;;11.55;;
71038;SDS011;58692;43.212;27.908;2022-07-06T04:19:57;23.35;;;11.38;;
71038;SDS011;58692;43.212;27.908;2022-07-06T04:22:23;20.57;;;11.47;;
71038;SDS011;58692;43.212;27.908;2022-07-06T04:24:49;19.03;;;11.47;;
71038;SDS011;58692;43.212;27.908;2022-07-06T04:27:14;20.80;;;12.25;;
71038;SDS011;58692;43.212;27.908;2022-07-06T04:29:40;25.43;;;12.40;;
71038;SDS011;58692;43.212;27.908;2022-07-06T04:32:05;19.93;;;11.63;;
71038;SDS011;58692;43.212;27.908;2022-07-06T04:34:43;19.92;;;12.00;;
71038;SDS011;58692;43.212;27.908;2022-07-06T04:37:09;22.45;;;11.82;;
71038;SDS011;58692;43.212;27.908;2022-07-06T04:39:34;22.07;;;11.90;;
71038;SDS011;58692;43.212;27.908;2022-07-06T04:42:00;20.35;;;10.60;;
71038;SDS011;58692;43.212;27.908;2022-07-06T04:44:25;21.90;;;10.60;;
71038;SDS011;58692;43.212;27.908;2022-07-06T04:46:51;23.13;;;11.40;;
71038;SDS011;58692;43.212;27.908;2022-07-06T04:49:24;19.65;;;11.13;;
71038;SDS011;58692;43.212;27.908;2022-07-06T04:51:50;20.02;;;11.02;;
71038;SDS011;58692;43.212;27.908;2022-07-06T04:54:15;20.60;;;10.57;;
71038;SDS011;58692;43.212;27.908;2022-07-06T04:56:41;23.93;;;11.33;;
71038;SDS011;58692;43.212;27.908;2022-07-06T04:59:06;16.45;;;11.90;;
71038;SDS011;58692;43.212;27.908;2022-07-06T05:01:32;17.00;;;11.80;;
71038;SDS011;58692;43.212;27.908;2022-07-06T05:03:57;18.23;;;11.33;;
71038;SDS011;58692;43.212;27.908;2022-07-06T05:06:23;19.02;;;11.10;;
71038;SDS011;58692;43.212;27.908;2022-07-06T05:08:48;21.27;;;11.60;;
71038;SDS011;58692;43.212;27.908;2022-07-06T05:11:14;24.00;;;11.73;;
71038;SDS011;58692;43.212;27.908;2022-07-06T05:13:39;20.50;;;11.85;;
71038;SDS011;58692;43.212;27.908;2022-07-06T05:16:05;27.07;;;11.83;;
71038;SDS011;58692;43.212;27.908;2022-07-06T05:18:30;18.05;;;11.95;;
71038;SDS011;58692;43.212;27.908;2022-07-06T05:20:56;23.80;;;12.63;;
71038;SDS011;58692;43.212;27.908;2022-07-06T05:23:22;18.90;;;12.13;;
71038;SDS011;58692;43.212;27.908;2022-07-06T05:25:47;21.50;;;13.63;;
71038;SDS011;58692;43.212;27.908;2022-07-06T05:28:13;26.60;;;14.50;;
71038;SDS011;58692;43.212;27.908;2022-07-06T05:30:38;23.30;;;14.10;;
71038;SDS011;58692;43.212;27.908;2022-07-06T05:33:04;24.02;;;13.57;;
71038;SDS011;58692;43.212;27.908;2022-07-06T05:35:29;23.10;;;13.03;;
71038;SDS011;58692;43.212;27.908;2022-07-06T05:37:55;23.47;;;12.70;;
71038;SDS011;58692;43.212;27.908;2022-07-06T05:40:20;23.33;;;13.27;;
71038;SDS011;58692;43.212;27.908;2022-07-06T05:42:46;24.10;;;14.40;;
71038;SDS011;58692;43.212;27.908;2022-07-06T05:45:11;23.35;;;14.07;;
71038;SDS011;58692;43.212;27.908;2022-07-06T05:47:38;20.10;;;12.87;;
71038;SDS011;58692;43.212;27.908;2022-07-06T05:50:19;31.08;;;17.88;;
71038;SDS011;58692;43.212;27.908;2022-07-06T05:52:51;27.52;;;19.48;;
71038;SDS011;58692;43.212;27.908;2022-07-06T05:55:21;32.13;;;19.87;;
71038;SDS011;58692;43.212;27.908;2022-07-06T05:57:46;29.88;;;18.42;;
71038;SDS011;58692;43.212;27.908;2022-07-06T06:00:12;28.03;;;18.27;;
71038;SDS011;58692;43.212;27.908;2022-07-06T06:02:38;28.77;;;18.98;;
71038;SDS011;58692;43.212;27.908;2022-07-06T06:05:06;29.60;;;18.25;;
71038;SDS011;58692;43.212;27.908;2022-07-06T06:07:33;27.50;;;15.80;;
71038;SDS011;58692;43.212;27.908;2022-07-06T06:10:00;25.60;;;15.25;;
71038;SDS011;58692;43.212;27.908;2022-07-06T06:12:26;22.92;;;14.63;;
71038;SDS011;58692;43.212;27.908;2022-07-06T06:14:51;22.33;;;13.67;;
71038;SDS011;58692;43.212;27.908;2022-07-06T06:17:17;24.02;;;13.55;;
71038;SDS011;58692;43.212;27.908;2022-07-06T06:19:42;21.77;;;13.17;;
71038;SDS011;58692;43.212;27.908;2022-07-06T06:22:08;22.35;;;13.32;;
71038;SDS011;58692;43.212;27.908;2022-07-06T06:24:33;20.73;;;12.90;;
71038;SDS011;58692;43.212;27.908;2022-07-06T06:26:59;24.83;;;13.30;;
71038;SDS011;58692;43.212;27.908;2022-07-06T06:32:19;18.23;;;11.33;;
71038;SDS011;58692;43.212;27.908;2022-07-06T06:34:45;17.80;;;11.05;;
71038;SDS011;58692;43.212;27.908;2022-07-06T06:37:10;20.27;;;11.07;;
71038;SDS011;58692;43.212;27.908;2022-07-06T06:39:36;16.80;;;10.70;;
71038;SDS011;58692;43.212;27.908;2022-07-06T06:42:01;18.23;;;10.77;;
71038;SDS011;58692;43.212;27.908;2022-07-06T06:44:27;19.53;;;9.90;;
71038;SDS011;58692;43.212;27.908;2022-07-06T06:46:53;17.77;;;10.50;;
71038;SDS011;58692;43.212;27.908;2022-07-06T06:49:18;17.33;;;10.03;;
71038;SDS011;58692;43.212;27.908;2022-07-06T06:51:44;25.60;;;10.27;;
71038;SDS011;58692;43.212;27.908;2022-07-06T06:54:16;18.60;;;10.88;;
71038;SDS011;58692;43.212;27.908;2022-07-06T06:56:41;20.08;;;10.95;;
71038;SDS011;58692;43.212;27.908;2022-07-06T06:59:16;23.87;;;10.43;;
71038;SDS011;58692;43.212;27.908;2022-07-06T07:04:32;21.90;;;11.18;;
71038;SDS011;58692;43.212;27.908;2022-07-06T07:06:58;20.13;;;11.05;;
71038;SDS011;58692;43.212;27.908;2022-07-06T07:09:26;17.05;;;10.93;;
71038;SDS011;58692;43.212;27.908;2022-07-06T07:11:52;19.37;;;11.07;;
71038;SDS011;58692;43.212;27.908;2022-07-06T07:14:17;16.90;;;10.55;;
71038;SDS011;58692;43.212;27.908;2022-07-06T07:16:43;16.67;;;11.30;;
71038;SDS011;58692;43.212;27.908;2022-07-06T07:19:08;17.30;;;10.53;;
71038;SDS011;58692;43.212;27.908;2022-07-06T07:21:36;20.50;;;11.27;;
71038;SDS011;58692;43.212;27.908;2022-07-06T07:24:02;15.63;;;11.05;;
71038;SDS011;58692;43.212;27.908;2022-07-06T07:26:28;21.57;;;11.97;;
71038;SDS011;58692;43.212;27.908;2022-07-06T07:28:53;17.73;;;10.63;;
71038;SDS011;58692;43.212;27.908;2022-07-06T07:31:19;16.67;;;10.30;;
71038;SDS011;58692;43.212;27.908;2022-07-06T07:33:45;16.83;;;10.50;;
71038;SDS011;58692;43.212;27.908;2022-07-06T07:36:10;16.97;;;10.10;;
71038;SDS011;58692;43.212;27.908;2022-07-06T07:38:36;18.30;;;10.23;;
71038;SDS011;58692;43.212;27.908;2022-07-06T07:41:01;16.73;;;9.90;;
71038;SDS011;58692;43.212;27.908;2022-07-06T07:43:27;19.00;;;9.70;;
71038;SDS011;58692;43.212;27.908;2022-07-06T07:45:53;14.00;;;7.88;;
71038;SDS011;58692;43.212;27.908;2022-07-06T07:48:18;13.83;;;7.33;;
71038;SDS011;58692;43.212;27.908;2022-07-06T07:50:44;14.30;;;7.57;;
71038;SDS011;58692;43.212;27.908;2022-07-06T07:53:09;8.97;;;5.50;;
71038;SDS011;58692;43.212;27.908;2022-07-06T07:55:35;11.88;;;6.10;;
71038;SDS011;58692;43.212;27.908;2022-07-06T07:58:00;10.80;;;5.40;;
71038;SDS011;58692;43.212;27.908;2022-07-06T08:00:26;11.00;;;5.93;;
71038;SDS011;58692;43.212;27.908;2022-07-06T08:02:53;10.48;;;6.05;;
71038;SDS011;58692;43.212;27.908;2022-07-06T08:05:19;13.48;;;5.82;;
71038;SDS011;58692;43.212;27.908;2022-07-06T08:07:45;10.03;;;5.80;;
71038;SDS011;58692;43.212;27.908;2022-07-06T08:10:10;11.02;;;5.15;;
71038;SDS011;58692;43.212;27.908;2022-07-06T08:12:37;9.63;;;5.32;;
71038;SDS011;58692;43.212;27.908;2022-07-06T08:15:09;9.47;;;4.40;;
71038;SDS011;58692;43.212;27.908;2022-07-06T08:17:35;9.40;;;4.53;;
71038;SDS011;58692;43.212;27.908;2022-07-06T08:20:00;7.18;;;4.38;;
71038;SDS011;58692;43.212;27.908;2022-07-06T08:22:26;12.13;;;4.13;;
71038;SDS011;58692;43.212;27.908;2022-07-06T08:24:52;8.00;;;4.32;;
71038;SDS011;58692;43.212;27.908;2022-07-06T08:27:18;9.40;;;4.93;;
71038;SDS011;58692;43.212;27.908;2022-07-06T08:29:52;9.65;;;4.22;;
71038;SDS011;58692;43.212;27.908;2022-07-06T08:32:18;7.38;;;4.07;;
71038;SDS011;58692;43.212;27.908;2022-07-06T08:34:45;8.38;;;4.18;;
71038;SDS011;58692;43.212;27.908;2022-07-06T08:37:11;9.45;;;4.75;;
71038;SDS011;58692;43.212;27.908;2022-07-06T08:39:36;8.13;;;4.93;;
71038;SDS011;58692;43.212;27.908;2022-07-06T08:42:02;9.90;;;4.50;;
71038;SDS011;58692;43.212;27.908;2022-07-06T08:44:28;9.95;;;4.20;;
71038;SDS011;58692;43.212;27.908;2022-07-06T08:46:54;8.40;;;3.92;;
71038;SDS011;58692;43.212;27.908;2022-07-06T08:49:23;10.68;;;4.47;;
71038;SDS011;58692;43.212;27.908;2022-07-06T08:51:50;9.07;;;4.10;;
71038;SDS011;58692;43.212;27.908;2022-07-06T08:54:37;7.10;;;3.90;;
71038;SDS011;58692;43.212;27.908;2022-07-06T08:57:03;9.98;;;4.60;;
71038;SDS011;58692;43.212;27.908;2022-07-06T08:59:29;9.38;;;3.95;;
71038;SDS011;58692;43.212;27.908;2022-07-06T09:01:55;7.00;;;4.00;;
71038;SDS011;58692;43.212;27.908;2022-07-06T09:04:21;7.72;;;4.03;;
71038;SDS011;58692;43.212;27.908;2022-07-06T09:06:47;9.48;;;4.20;;
71038;SDS011;58692;43.212;27.908;2022-07-06T09:09:18;9.57;;;4.60;;
71038;SDS011;58692;43.212;27.908;2022-07-06T09:11:46;8.73;;;3.90;;
71038;SDS011;58692;43.212;27.908;2022-07-06T09:14:12;9.13;;;4.07;;
71038;SDS011;58692;43.212;27.908;2022-07-06T09:16:38;10.63;;;3.92;;
71038;SDS011;58692;43.212;27.908;2022-07-06T09:19:04;9.07;;;4.53;;
71038;SDS011;58692;43.212;27.908;2022-07-06T09:21:31;7.68;;;4.30;;
71038;SDS011;58692;43.212;27.908;2022-07-06T09:24:07;8.10;;;4.75;;
71038;SDS011;58692;43.212;27.908;2022-07-06T09:26:42;9.07;;;4.00;;
71038;SDS011;58692;43.212;27.908;2022-07-06T09:29:26;9.05;;;4.25;;
71038;SDS011;58692;43.212;27.908;2022-07-06T09:32:01;10.10;;;4.32;;
71038;SDS011;58692;43.212;27.908;2022-07-06T09:37:10;6.90;;;4.35;;
71038;SDS011;58692;43.212;27.908;2022-07-06T09:39:36;8.80;;;4.50;;
71038;SDS011;58692;43.212;27.908;2022-07-06T09:42:02;7.53;;;4.50;;
71038;SDS011;58692;43.212;27.908;2022-07-06T09:44:31;13.50;;;4.55;;
71038;SDS011;58692;43.212;27.908;2022-07-06T09:47:01;9.57;;;4.40;;
71038;SDS011;58692;43.212;27.908;2022-07-06T09:49:29;8.27;;;4.00;;
71038;SDS011;58692;43.212;27.908;2022-07-06T09:51:55;10.32;;;4.60;;
71038;SDS011;58692;43.212;27.908;2022-07-06T09:54:22;9.52;;;4.40;;
71038;SDS011;58692;43.212;27.908;2022-07-06T09:56:49;9.43;;;4.00;;
71038;SDS011;58692;43.212;27.908;2022-07-06T09:59:16;8.05;;;4.30;;
71038;SDS011;58692;43.212;27.908;2022-07-06T10:01:46;9.27;;;4.57;;
71038;SDS011;58692;43.212;27.908;2022-07-06T10:04:12;8.63;;;4.22;;
71038;SDS011;58692;43.212;27.908;2022-07-06T10:06:39;8.63;;;4.90;;
71038;SDS011;58692;43.212;27.908;2022-07-06T10:09:06;7.53;;;4.33;;
71038;SDS011;58692;43.212;27.908;2022-07-06T10:11:43;8.95;;;4.80;;
71038;SDS011;58692;43.212;27.908;2022-07-06T10:14:48;8.15;;;4.60;;
71038;SDS011;58692;43.212;27.908;2022-07-06T10:17:30;10.55;;;5.00;;
71038;SDS011;58692;43.212;27.908;2022-07-06T10:19:55;7.72;;;4.72;;
71038;SDS011;58692;43.212;27.908;2022-07-06T10:22:22;11.27;;;4.47;;
71038;SDS011;58692;43.212;27.908;2022-07-06T10:24:59;10.55;;;4.55;;
71038;SDS011;58692;43.212;27.908;2022-07-06T10:27:27;8.15;;;4.50;;
71038;SDS011;58692;43.212;27.908;2022-07-06T10:29:53;9.70;;;4.65;;
71038;SDS011;58692;43.212;27.908;2022-07-06T10:32:19;8.20;;;4.60;;
71038;SDS011;58692;43.212;27.908;2022-07-06T10:34:48;8.25;;;4.57;;
71038;SDS011;58692;43.212;27.908;2022-07-06T10:37:27;9.77;;;4.65;;
71038;SDS011;58692;43.212;27.908;2022-07-06T10:39:53;7.73;;;4.20;;
71038;SDS011;58692;43.212;27.908;2022-07-06T10:42:42;10.30;;;4.53;;
71038;SDS011;58692;43.212;27.908;2022-07-06T10:45:50;9.32;;;4.60;;
71038;SDS011;58692;43.212;27.908;2022-07-06T10:48:17;10.73;;;4.28;;
71038;SDS011;58692;43.212;27.908;2022-07-06T10:53:10;8.17;;;4.37;;
71038;SDS011;58692;43.212;27.908;2022-07-06T10:55:38;7.85;;;4.05;;
71038;SDS011;58692;43.212;27.908;2022-07-06T10:58:06;8.52;;;4.30;;
71038;SDS011;58692;43.212;27.908;2022-07-06T11:05:58;7.22;;;4.30;;
71038;SDS011;58692;43.212;27.908;2022-07-06T11:11:22;7.50;;;4.00;;
71038;SDS011;58692;43.212;27.908;2022-07-06T11:13:54;11.47;;;4.60;;
71038;SDS011;58692;43.212;27.908;2022-07-06T11:16:24;9.30;;;5.00;;
71038;SDS011;58692;43.212;27.908;2022-07-06T11:18:59;9.43;;;4.35;;
71038;SDS011;58692;43.212;27.908;2022-07-06T11:24:11;8.60;;;4.30;;
71038;SDS011;58692;43.212;27.908;2022-07-06T11:26:38;9.77;;;4.50;;
71038;SDS011;58692;43.212;27.908;2022-07-06T11:29:06;10.00;;;4.57;;
71038;SDS011;58692;43.212;27.908;2022-07-06T11:31:34;7.95;;;4.20;;
71038;SDS011;58692;43.212;27.908;2022-07-06T11:34:04;8.63;;;4.20;;
71038;SDS011;58692;43.212;27.908;2022-07-06T11:36:30;8.98;;;4.30;;
71038;SDS011;58692;43.212;27.908;2022-07-06T11:38:56;12.60;;;4.60;;
71038;SDS011;58692;43.212;27.908;2022-07-06T11:41:22;7.50;;;3.85;;
71038;SDS011;58692;43.212;27.908;2022-07-06T11:43:47;7.93;;;4.13;;
71038;SDS011;58692;43.212;27.908;2022-07-06T11:46:18;7.10;;;4.25;;
71038;SDS011;58692;43.212;27.908;2022-07-06T11:48:46;9.57;;;4.45;;
71038;SDS011;58692;43.212;27.908;2022-07-06T11:51:13;8.25;;;4.10;;
71038;SDS011;58692;43.212;27.908;2022-07-06T11:53:47;8.33;;;4.33;;
71038;SDS011;58692;43.212;27.908;2022-07-06T11:56:14;6.70;;;4.30;;
71038;SDS011;58692;43.212;27.908;2022-07-06T11:58:43;7.72;;;3.95;;
71038;SDS011;58692;43.212;27.908;2022-07-06T12:01:12;10.27;;;4.20;;
71038;SDS011;58692;43.212;27.908;2022-07-06T12:03:39;8.75;;;4.30;;
71038;SDS011;58692;43.212;27.908;2022-07-06T12:06:05;8.80;;;4.20;;
71038;SDS011;58692;43.212;27.908;2022-07-06T12:08:41;6.75;;;4.30;;
71038;SDS011;58692;43.212;27.908;2022-07-06T12:11:08;8.73;;;4.07;;
71038;SDS011;58692;43.212;27.908;2022-07-06T12:13:36;8.80;;;4.45;;
71038;SDS011;58692;43.212;27.908;2022-07-06T12:16:12;8.00;;;4.77;;
71038;SDS011;58692;43.212;27.908;2022-07-06T12:18:38;8.75;;;4.50;;
71038;SDS011;58692;43.212;27.908;2022-07-06T12:21:08;7.63;;;4.50;;
71038;SDS011;58692;43.212;27.908;2022-07-06T12:23:39;9.75;;;4.75;;
71038;SDS011;58692;43.212;27.908;2022-07-06T12:26:06;8.40;;;4.70;;
71038;SDS011;58692;43.212;27.908;2022-07-06T12:28:32;9.67;;;4.63;;
71038;SDS011;58692;43.212;27.908;2022-07-06T12:30:58;9.27;;;4.88;;
71038;SDS011;58692;43.212;27.908;2022-07-06T12:33:23;7.40;;;4.50;;
71038;SDS011;58692;43.212;27.908;2022-07-06T12:35:49;11.50;;;4.80;;
71038;SDS011;58692;43.212;27.908;2022-07-06T12:38:26;10.20;;;4.80;;
71038;SDS011;58692;43.212;27.908;2022-07-06T12:40:52;10.15;;;5.00;;
71038;SDS011;58692;43.212;27.908;2022-07-06T12:46:14;9.03;;;4.40;;
71038;SDS011;58692;43.212;27.908;2022-07-06T12:48:55;7.25;;;4.10;;
71038;SDS011;58692;43.212;27.908;2022-07-06T12:51:22;8.13;;;4.20;;
71038;SDS011;58692;43.212;27.908;2022-07-06T12:53:48;7.13;;;3.85;;
71038;SDS011;58692;43.212;27.908;2022-07-06T12:56:14;7.33;;;4.10;;
71038;SDS011;58692;43.212;27.908;2022-07-06T13:01:23;6.93;;;3.58;;
71038;SDS011;58692;43.212;27.908;2022-07-06T13:03:51;7.70;;;3.60;;
71038;SDS011;58692;43.212;27.908;2022-07-06T13:09:02;8.73;;;3.70;;
71038;SDS011;58692;43.212;27.908;2022-07-06T13:11:28;7.32;;;3.50;;
71038;SDS011;58692;43.212;27.908;2022-07-06T13:13:53;6.97;;;3.60;;
71038;SDS011;58692;43.212;27.908;2022-07-06T13:16:19;6.45;;;3.40;;
71038;SDS011;58692;43.212;27.908;2022-07-06T13:18:44;5.90;;;3.60;;
71038;SDS011;58692;43.212;27.908;2022-07-06T13:21:10;7.03;;;3.65;;
71038;SDS011;58692;43.212;27.908;2022-07-06T13:23:36;7.57;;;3.30;;
71038;SDS011;58692;43.212;27.908;2022-07-06T13:26:02;8.43;;;3.70;;
71038;SDS011;58692;43.212;27.908;2022-07-06T13:28:27;7.33;;;3.40;;
71038;SDS011;58692;43.212;27.908;2022-07-06T13:30:53;10.20;;;4.13;;
71038;SDS011;58692;43.212;27.908;2022-07-06T13:33:18;7.90;;;3.53;;
71038;SDS011;58692;43.212;27.908;2022-07-06T13:35:44;8.20;;;3.57;;
71038;SDS011;58692;43.212;27.908;2022-07-06T13:38:09;8.57;;;3.63;;
71038;SDS011;58692;43.212;27.908;2022-07-06T13:40:35;7.70;;;3.60;;
71038;SDS011;58692;43.212;27.908;2022-07-06T13:43:00;7.53;;;3.33;;
71038;SDS011;58692;43.212;27.908;2022-07-06T13:45:26;8.48;;;3.60;;
71038;SDS011;58692;43.212;27.908;2022-07-06T13:47:52;10.70;;;3.40;;
71038;SDS011;58692;43.212;27.908;2022-07-06T13:50:17;10.47;;;3.90;;
71038;SDS011;58692;43.212;27.908;2022-07-06T13:52:43;6.87;;;3.40;;
71038;SDS011;58692;43.212;27.908;2022-07-06T13:55:08;7.03;;;3.47;;
71038;SDS011;58692;43.212;27.908;2022-07-06T13:57:34;6.27;;;3.40;;
71038;SDS011;58692;43.212;27.908;2022-07-06T14:00:00;8.15;;;3.65;;
71038;SDS011;58692;43.212;27.908;2022-07-06T14:02:25;7.20;;;3.40;;
71038;SDS011;58692;43.212;27.908;2022-07-06T14:04:51;5.93;;;3.05;;
71038;SDS011;58692;43.212;27.908;2022-07-06T14:07:17;6.60;;;3.27;;
71038;SDS011;58692;43.212;27.908;2022-07-06T14:09:42;7.33;;;3.43;;
71038;SDS011;58692;43.212;27.908;2022-07-06T14:12:08;8.50;;;3.40;;
71038;SDS011;58692;43.212;27.908;2022-07-06T14:14:33;13.47;;;4.00;;
71038;SDS011;58692;43.212;27.908;2022-07-06T14:16:59;6.88;;;3.78;;
71038;SDS011;58692;43.212;27.908;2022-07-06T14:19:24;7.67;;;3.60;;
71038;SDS011;58692;43.212;27.908;2022-07-06T14:21:51;7.78;;;3.50;;
71038;SDS011;58692;43.212;27.908;2022-07-06T14:24:17;8.67;;;3.30;;
71038;SDS011;58692;43.212;27.908;2022-07-06T14:26:42;8.50;;;3.75;;
71038;SDS011;58692;43.212;27.908;2022-07-06T14:29:08;6.63;;;3.17;;
71038;SDS011;58692;43.212;27.908;2022-07-06T14:31:34;10.67;;;3.67;;
71038;SDS011;58692;43.212;27.908;2022-07-06T14:34:00;6.72;;;3.30;;
71038;SDS011;58692;43.212;27.908;2022-07-06T14:36:25;6.00;;;3.07;;
71038;SDS011;58692;43.212;27.908;2022-07-06T14:38:51;9.20;;;3.47;;
71038;SDS011;58692;43.212;27.908;2022-07-06T14:41:16;7.65;;;3.75;;
71038;SDS011;58692;43.212;27.908;2022-07-06T14:43:42;5.73;;;3.53;;
71038;SDS011;58692;43.212;27.908;2022-07-06T14:46:08;7.20;;;3.58;;
71038;SDS011;58692;43.212;27.908;2022-07-06T14:48:33;12.03;;;3.60;;
71038;SDS011;58692;43.212;27.908;2022-07-06T14:50:59;8.80;;;3.35;;
71038;SDS011;58692;43.212;27.908;2022-07-06T14:53:25;7.77;;;3.60;;